createdAt,value
2023-05-09T00:00:37.703Z,783.00
2023-05-09T00:01:37.761Z,784.00
2023-05-09T00:02:37.902Z,784.00
2023-05-09T00:03:37.647Z,783.00
2023-05-09T00:04:37.717Z,782.00
2023-05-09T00:05:37.663Z,780.00
2023-05-09T00:06:37.670Z,779.00
2023-05-09T00:07:37.629Z,779.00
2023-05-09T00:08:37.625Z,777.00
2023-05-09T00:09:37.727Z,777.00
2023-05-09T00:10:37.621Z,776.00
2023-05-09T00:11:37.639Z,773.00
2023-05-09T00:12:37.653Z,773.00
2023-05-09T00:13:37.641Z,774.00
2023-05-09T00:14:37.596Z,773.00
2023-05-09T00:15:37.591Z,772.00
2023-05-09T00:16:37.659Z,772.00
2023-05-09T00:17:37.649Z,772.00
2023-05-09T00:18:37.577Z,769.00
2023-05-09T00:19:37.539Z,770.00
2023-05-09T00:20:37.561Z,768.00
2023-05-09T00:21:37.581Z,769.00
2023-05-09T00:22:37.552Z,767.00
2023-05-09T00:23:37.544Z,767.00
2023-05-09T00:24:37.523Z,765.00
2023-05-09T00:25:37.609Z,765.00
2023-05-09T00:26:37.528Z,766.00
2023-05-09T00:27:37.514Z,766.00
2023-05-09T00:28:37.509Z,765.00
2023-05-09T00:29:37.472Z,764.00
2023-05-09T00:30:37.510Z,765.00
2023-05-09T00:31:37.537Z,765.00
2023-05-09T00:32:37.546Z,763.00
2023-05-09T00:33:37.544Z,763.00
2023-05-09T00:34:37.580Z,764.00
2023-05-09T00:35:37.599Z,761.00
2023-05-09T00:36:37.716Z,762.00
2023-05-09T00:37:37.674Z,762.00
2023-05-09T00:38:37.723Z,763.00
2023-05-09T00:39:37.719Z,764.00
2023-05-09T00:40:37.758Z,765.00
2023-05-09T00:41:37.872Z,764.00
2023-05-09T00:42:37.839Z,763.00
2023-05-09T00:43:37.852Z,763.00
2023-05-09T00:44:37.852Z,759.00
2023-05-09T00:45:37.904Z,762.00
2023-05-09T00:46:37.981Z,764.00
2023-05-09T00:47:37.966Z,761.00
2023-05-09T00:48:38.006Z,763.00
2023-05-09T00:49:38.039Z,762.00
2023-05-09T00:50:38.072Z,763.00
2023-05-09T00:51:38.085Z,760.00
2023-05-09T00:52:38.125Z,760.00
2023-05-09T00:53:38.152Z,760.00
2023-05-09T00:54:38.207Z,760.00
2023-05-09T00:55:38.217Z,758.00
2023-05-09T00:56:38.268Z,756.00
2023-05-09T00:57:38.383Z,760.00
2023-05-09T00:58:38.340Z,758.00
2023-05-09T00:59:38.345Z,758.00
2023-05-09T01:00:38.411Z,756.00
2023-05-09T01:01:38.460Z,755.00
2023-05-09T01:02:38.510Z,755.00
2023-05-09T01:03:38.616Z,756.00
2023-05-09T01:04:38.518Z,755.00
2023-05-09T01:05:38.573Z,757.00
2023-05-09T01:06:38.593Z,754.00
2023-05-09T01:07:38.643Z,753.00
2023-05-09T01:08:38.658Z,753.00
2023-05-09T01:09:38.659Z,754.00
2023-05-09T01:10:38.699Z,757.00
2023-05-09T01:11:38.727Z,756.00
2023-05-09T01:12:38.924Z,757.00
2023-05-09T01:13:38.930Z,757.00
2023-05-09T01:14:38.849Z,753.00
2023-05-09T01:15:38.899Z,753.00
2023-05-09T01:16:38.917Z,754.00
2023-05-09T01:17:38.968Z,754.00
2023-05-09T01:18:38.993Z,751.00
2023-05-09T01:19:39.036Z,748.00
2023-05-09T01:20:39.069Z,749.00
2023-05-09T01:21:39.116Z,750.00
2023-05-09T01:22:39.183Z,750.00
2023-05-09T01:23:39.196Z,751.00
2023-05-09T01:24:39.221Z,752.00
2023-05-09T01:25:39.769Z,752.00
2023-05-09T01:26:39.802Z,750.00
2023-05-09T01:27:39.360Z,751.00
2023-05-09T01:28:39.417Z,750.00
2023-05-09T01:29:39.544Z,749.00
2023-05-09T01:30:39.496Z,751.00
2023-05-09T01:31:39.585Z,752.00
2023-05-09T01:32:39.592Z,751.00
2023-05-09T01:33:39.602Z,750.00
2023-05-09T01:34:39.660Z,749.00
2023-05-09T01:35:39.702Z,748.00
2023-05-09T01:36:39.734Z,747.00
2023-05-09T01:37:39.770Z,746.00
2023-05-09T01:38:39.808Z,744.00
2023-05-09T01:39:39.865Z,747.00
2023-05-09T01:40:39.897Z,745.00
2023-05-09T01:41:39.990Z,745.00
2023-05-09T01:42:39.976Z,744.00
2023-05-09T01:43:40.056Z,742.00
2023-05-09T01:44:40.059Z,742.00
2023-05-09T01:45:40.198Z,742.00
2023-05-09T01:46:40.393Z,742.00
2023-05-09T01:47:40.215Z,739.00
2023-05-09T01:48:40.240Z,738.00
2023-05-09T01:49:40.243Z,738.00
2023-05-09T01:50:40.281Z,738.00
2023-05-09T01:51:41.622Z,740.00
2023-05-09T01:52:40.530Z,739.00
2023-05-09T01:53:40.611Z,739.00
2023-05-09T01:54:40.639Z,739.00
2023-05-09T01:55:40.683Z,740.00
2023-05-09T01:56:40.710Z,738.00
2023-05-09T01:57:40.743Z,739.00
2023-05-09T01:58:40.794Z,741.00
2023-05-09T01:59:40.824Z,737.00
2023-05-09T02:00:40.944Z,736.00
2023-05-09T02:01:41.396Z,739.00
2023-05-09T02:02:41.031Z,737.00
2023-05-09T02:03:41.032Z,734.00
2023-05-09T02:04:41.081Z,733.00
2023-05-09T02:05:41.100Z,732.00
2023-05-09T02:06:41.175Z,732.00
2023-05-09T02:07:41.194Z,733.00
2023-05-09T02:08:41.224Z,732.00
2023-05-09T02:09:41.283Z,731.00
2023-05-09T02:10:41.291Z,732.00
2023-05-09T02:11:41.366Z,733.00
2023-05-09T02:12:41.417Z,730.00
2023-05-09T02:13:41.424Z,730.00
2023-05-09T02:14:41.420Z,728.00
2023-05-09T02:15:41.501Z,729.00
2023-05-09T02:16:41.556Z,730.00
2023-05-09T02:17:41.688Z,731.00
2023-05-09T02:18:41.613Z,730.00
2023-05-09T02:19:41.643Z,730.00
2023-05-09T02:20:41.718Z,733.00
2023-05-09T02:21:41.789Z,736.00
2023-05-09T02:22:41.792Z,737.00
2023-05-09T02:23:41.810Z,734.00
2023-05-09T02:24:41.839Z,734.00
2023-05-09T02:25:41.903Z,731.00
2023-05-09T02:26:42.324Z,732.00
2023-05-09T02:27:41.980Z,732.00
2023-05-09T02:28:42.023Z,733.00
2023-05-09T02:29:42.068Z,735.00
2023-05-09T02:30:42.087Z,736.00
2023-05-09T02:31:42.171Z,734.00
2023-05-09T02:32:42.361Z,732.00
2023-05-09T02:33:42.325Z,732.00
2023-05-09T02:34:42.292Z,730.00
2023-05-09T02:35:42.351Z,731.00
2023-05-09T02:36:42.392Z,731.00
2023-05-09T02:37:42.405Z,731.00
2023-05-09T02:38:42.453Z,731.00
2023-05-09T02:39:42.517Z,733.00
2023-05-09T02:40:42.528Z,735.00
2023-05-09T02:41:42.602Z,736.00
2023-05-09T02:42:42.623Z,735.00
2023-05-09T02:43:42.667Z,734.00
2023-05-09T02:44:42.727Z,732.00
2023-05-09T02:45:42.842Z,734.00
2023-05-09T02:46:42.830Z,732.00
2023-05-09T02:47:43.372Z,733.00
2023-05-09T02:48:42.902Z,734.00
2023-05-09T02:49:43.017Z,732.00
2023-05-09T02:50:42.999Z,731.00
2023-05-09T02:51:43.070Z,729.00
2023-05-09T02:52:43.117Z,728.00
2023-05-09T02:53:43.144Z,724.00
2023-05-09T02:54:43.189Z,725.00
2023-05-09T02:55:43.217Z,725.00
2023-05-09T02:56:43.308Z,726.00
2023-05-09T02:57:43.311Z,725.00
2023-05-09T02:58:43.356Z,727.00
2023-05-09T02:59:43.428Z,726.00
2023-05-09T03:00:43.489Z,725.00
2023-05-09T03:01:43.552Z,726.00
2023-05-09T03:02:43.911Z,727.00
2023-05-09T03:03:43.670Z,726.00
2023-05-09T03:04:43.628Z,729.00
2023-05-09T03:05:43.808Z,731.00
2023-05-09T03:06:43.729Z,732.00
2023-05-09T03:07:43.807Z,729.00
2023-05-09T03:08:43.859Z,727.00
2023-05-09T03:09:43.899Z,728.00
2023-05-09T03:10:43.937Z,727.00
2023-05-09T03:11:43.987Z,728.00
2023-05-09T03:12:44.104Z,727.00
2023-05-09T03:13:44.062Z,728.00
2023-05-09T03:14:44.111Z,727.00
2023-05-09T03:15:44.204Z,728.00
2023-05-09T03:16:44.196Z,731.00
2023-05-09T03:17:44.309Z,733.00
2023-05-09T03:18:44.324Z,730.00
2023-05-09T03:19:44.342Z,730.00
2023-05-09T03:20:44.400Z,731.00
2023-05-09T03:21:44.529Z,730.00
2023-05-09T03:22:44.854Z,729.00
2023-05-09T03:23:44.535Z,729.00
2023-05-09T03:24:44.599Z,728.00
2023-05-09T03:25:44.581Z,729.00
2023-05-09T03:26:44.672Z,728.00
2023-05-09T03:27:44.712Z,730.00
2023-05-09T03:28:44.755Z,731.00
2023-05-09T03:29:44.802Z,731.00
2023-05-09T03:30:44.877Z,734.00
2023-05-09T03:31:44.969Z,734.00
2023-05-09T03:32:45.041Z,734.00
2023-05-09T03:33:45.007Z,737.00
2023-05-09T03:34:45.058Z,740.00
2023-05-09T03:35:45.117Z,739.00
2023-05-09T03:36:45.144Z,738.00
2023-05-09T03:37:45.437Z,740.00
2023-05-09T03:38:45.264Z,741.00
2023-05-09T03:39:45.299Z,739.00
2023-05-09T03:40:45.370Z,740.00
2023-05-09T03:41:45.363Z,738.00
2023-05-09T03:42:45.867Z,739.00
2023-05-09T03:43:45.448Z,739.00
2023-05-09T03:44:45.533Z,739.00
2023-05-09T03:45:45.550Z,738.00
2023-05-09T03:46:45.737Z,738.00
2023-05-09T03:47:45.679Z,736.00
2023-05-09T03:48:45.719Z,731.00
2023-05-09T03:49:45.766Z,732.00
2023-05-09T03:50:45.782Z,730.00
2023-05-09T03:51:45.856Z,731.00
2023-05-09T03:52:45.919Z,732.00
2023-05-09T03:53:46.012Z,734.00
2023-05-09T03:54:46.014Z,733.00
2023-05-09T03:55:46.049Z,732.00
2023-05-09T03:56:46.089Z,730.00
2023-05-09T03:57:46.420Z,729.00
2023-05-09T03:58:46.177Z,728.00
2023-05-09T03:59:46.202Z,729.00
2023-05-09T04:00:46.279Z,728.00
2023-05-09T04:01:46.380Z,727.00
2023-05-09T04:02:46.401Z,727.00
2023-05-09T04:03:46.471Z,726.00
2023-05-09T04:04:46.505Z,722.00
2023-05-09T04:05:46.513Z,720.00
2023-05-09T04:06:46.531Z,720.00
2023-05-09T04:07:46.595Z,721.00
2023-05-09T04:08:46.650Z,720.00
2023-05-09T04:09:46.786Z,722.00
2023-05-09T04:10:46.715Z,721.00
2023-05-09T04:11:46.777Z,721.00
2023-05-09T04:12:46.841Z,718.00
2023-05-09T04:13:46.890Z,717.00
2023-05-09T04:14:49.041Z,718.00
2023-05-09T04:15:47.018Z,719.00
2023-05-09T04:16:47.079Z,717.00
2023-05-09T04:17:47.164Z,717.00
2023-05-09T04:18:47.135Z,720.00
2023-05-09T04:19:47.170Z,720.00
2023-05-09T04:20:47.199Z,722.00
2023-05-09T04:21:47.296Z,719.00
2023-05-09T04:22:47.329Z,719.00
2023-05-09T04:23:47.409Z,718.00
2023-05-09T04:24:47.455Z,720.00
2023-05-09T04:25:47.584Z,722.00
2023-05-09T04:26:47.526Z,720.00
2023-05-09T04:27:47.584Z,720.00
2023-05-09T04:28:47.654Z,719.00
2023-05-09T04:29:47.693Z,719.00
2023-05-09T04:30:47.792Z,721.00
2023-05-09T04:31:48.021Z,721.00
2023-05-09T04:32:47.867Z,719.00
2023-05-09T04:33:47.880Z,718.00
2023-05-09T04:34:47.940Z,716.00
2023-05-09T04:35:47.980Z,715.00
2023-05-09T04:36:48.036Z,713.00
2023-05-09T04:37:48.358Z,712.00
2023-05-09T04:38:48.123Z,711.00
2023-05-09T04:39:48.184Z,710.00
2023-05-09T04:40:48.245Z,709.00
2023-05-09T04:41:48.374Z,709.00
2023-05-09T04:42:48.357Z,710.00
2023-05-09T04:43:48.412Z,712.00
2023-05-09T04:44:48.455Z,711.00
2023-05-09T04:45:48.517Z,713.00
2023-05-09T04:46:48.562Z,711.00
2023-05-09T04:47:48.878Z,712.00
2023-05-09T04:48:48.665Z,713.00
2023-05-09T04:49:48.725Z,711.00
2023-05-09T04:50:48.758Z,714.00
2023-05-09T04:51:48.795Z,714.00
2023-05-09T04:52:48.880Z,713.00
2023-05-09T04:53:48.909Z,712.00
2023-05-09T04:54:48.972Z,714.00
2023-05-09T04:55:49.026Z,714.00
2023-05-09T04:56:50.613Z,714.00
2023-05-09T04:57:49.232Z,711.00
2023-05-09T04:58:49.204Z,710.00
2023-05-09T04:59:49.244Z,711.00
2023-05-09T05:00:49.297Z,710.00
2023-05-09T05:01:49.385Z,709.00
2023-05-09T05:02:49.421Z,711.00
2023-05-09T05:03:49.425Z,710.00
2023-05-09T05:04:49.549Z,709.00
2023-05-09T05:05:49.619Z,706.00
2023-05-09T05:06:49.582Z,704.00
2023-05-09T05:07:49.618Z,702.00
2023-05-09T05:08:49.690Z,705.00
2023-05-09T05:09:49.727Z,705.00
2023-05-09T05:10:49.785Z,705.00
2023-05-09T05:11:59.514Z,706.00
2023-05-09T05:12:50.975Z,703.00
2023-05-09T05:13:49.939Z,701.00
2023-05-09T05:14:49.808Z,701.00
2023-05-09T05:15:49.910Z,699.00
2023-05-09T05:16:49.801Z,699.00
2023-05-09T05:17:49.828Z,699.00
2023-05-09T05:18:49.790Z,701.00
2023-05-09T05:19:49.769Z,705.00
2023-05-09T05:20:49.785Z,706.00
2023-05-09T05:21:49.841Z,706.00
2023-05-09T05:22:49.875Z,703.00
2023-05-09T05:23:49.952Z,703.00
2023-05-09T05:24:49.999Z,702.00
2023-05-09T05:25:50.054Z,702.00
2023-05-09T05:26:50.096Z,702.00
2023-05-09T05:27:50.134Z,699.00
2023-05-09T05:28:50.205Z,699.00
2023-05-09T05:29:50.344Z,696.00
2023-05-09T05:30:50.283Z,695.00
2023-05-09T05:31:50.439Z,697.00
2023-05-09T05:32:50.468Z,698.00
2023-05-09T05:33:50.463Z,699.00
2023-05-09T05:34:50.484Z,699.00
2023-05-09T05:35:50.546Z,697.00
2023-05-09T05:36:50.590Z,699.00
2023-05-09T05:37:50.702Z,699.00
2023-05-09T05:38:50.704Z,701.00
2023-05-09T05:39:50.747Z,701.00
2023-05-09T05:40:50.770Z,700.00
2023-05-09T05:41:50.853Z,700.00
2023-05-09T05:42:51.363Z,697.00
2023-05-09T05:43:53.469Z,695.00
2023-05-09T05:44:50.937Z,694.00
2023-05-09T05:45:51.095Z,695.00
2023-05-09T05:46:50.958Z,693.00
2023-05-09T05:47:50.960Z,693.00
2023-05-09T05:48:51.856Z,697.00
2023-05-09T05:49:50.894Z,701.00
2023-05-09T05:50:50.924Z,704.00
2023-05-09T05:51:51.001Z,711.00
2023-05-09T05:52:51.386Z,712.00
2023-05-09T05:53:50.909Z,710.00
2023-05-09T05:54:50.887Z,717.00
2023-05-09T05:55:50.870Z,724.00
2023-05-09T05:56:50.882Z,727.00
2023-05-09T05:57:50.862Z,730.00
2023-05-09T05:58:50.829Z,733.00
2023-05-09T05:59:50.869Z,734.00
2023-05-09T06:00:50.848Z,734.00
2023-05-09T06:01:50.965Z,737.00
2023-05-09T06:02:50.989Z,738.00
2023-05-09T06:03:50.867Z,739.00
2023-05-09T06:04:50.832Z,739.00
2023-05-09T06:05:50.821Z,737.00
2023-05-09T06:06:50.798Z,736.00
2023-05-09T06:07:50.791Z,739.00
2023-05-09T06:08:50.776Z,796.00
2023-05-09T06:09:50.848Z,841.00
2023-05-09T06:10:50.759Z,1106.00
2023-05-09T06:11:50.767Z,1159.00
2023-05-09T06:12:50.804Z,1028.00
2023-05-09T06:13:50.769Z,1043.00
2023-05-09T06:14:50.764Z,1139.00
2023-05-09T06:15:50.748Z,1160.00
2023-05-09T06:16:50.758Z,1158.00
2023-05-09T06:17:51.020Z,1131.00
2023-05-09T06:18:51.158Z,1185.00
2023-05-09T06:19:50.691Z,1225.00
2023-05-09T06:20:50.710Z,1239.00
2023-05-09T06:21:50.681Z,1238.00
2023-05-09T06:22:50.685Z,1244.00
2023-05-09T06:24:06.616Z,1257.00
2023-05-09T06:24:51.676Z,1156.00
2023-05-09T06:25:50.696Z,1159.00
2023-05-09T06:26:50.670Z,1118.00
2023-05-09T06:27:50.655Z,1084.00
2023-05-09T06:28:50.666Z,1077.00
2023-05-09T06:29:50.643Z,1078.00
2023-05-09T06:30:50.647Z,1075.00
2023-05-09T06:31:50.693Z,1028.00
2023-05-09T06:32:50.681Z,942.00
2023-05-09T06:33:50.979Z,960.00
2023-05-09T06:34:50.622Z,980.00
2023-05-09T06:35:50.630Z,975.00
2023-05-09T06:36:50.590Z,962.00
2023-05-09T06:37:50.568Z,964.00
2023-05-09T06:38:50.886Z,891.00
2023-05-09T06:39:50.562Z,920.00
2023-05-09T06:40:50.568Z,941.00
2023-05-09T06:41:50.566Z,934.00
2023-05-09T06:42:50.606Z,922.00
2023-05-09T06:43:50.540Z,931.00
2023-05-09T06:44:50.552Z,917.00
2023-05-09T06:45:50.541Z,893.00
2023-05-09T06:46:50.528Z,895.00
2023-05-09T06:47:50.506Z,905.00
2023-05-09T06:48:50.528Z,921.00
2023-05-09T06:49:50.560Z,938.00
2023-05-09T06:50:50.485Z,964.00
2023-05-09T06:51:50.506Z,972.00
2023-05-09T06:52:50.484Z,982.00
2023-05-09T06:53:50.484Z,986.00
2023-05-09T06:54:50.480Z,990.00
2023-05-09T06:55:50.482Z,996.00
2023-05-09T06:56:50.543Z,1003.00
2023-05-09T06:57:50.660Z,1012.00
2023-05-09T06:58:50.682Z,1026.00
2023-05-09T06:59:51.375Z,1031.00
2023-05-09T07:00:50.822Z,1054.00
2023-05-09T07:01:50.859Z,1071.00
2023-05-09T07:02:50.909Z,1080.00
2023-05-09T07:03:52.015Z,1090.00
2023-05-09T07:04:51.122Z,1095.00
2023-05-09T07:05:51.208Z,1096.00
2023-05-09T07:06:51.190Z,1092.00
2023-05-09T07:07:51.223Z,1084.00
2023-05-09T07:08:51.326Z,1081.00
2023-05-09T07:09:55.216Z,1082.00
2023-05-09T07:10:52.291Z,1081.00
2023-05-09T07:11:51.322Z,1079.00
2023-05-09T07:12:51.297Z,1079.00
2023-05-09T07:13:51.303Z,1080.00
2023-05-09T07:14:51.288Z,1084.00
2023-05-09T07:15:51.303Z,1084.00
2023-05-09T07:16:51.332Z,1082.00
2023-05-09T07:17:51.284Z,1078.00
2023-05-09T07:18:51.284Z,1078.00
2023-05-09T07:19:51.318Z,1076.00
2023-05-09T07:20:51.373Z,1081.00
2023-05-09T07:21:51.510Z,1090.00
2023-05-09T07:22:51.477Z,1098.00
2023-05-09T07:23:51.487Z,1102.00
2023-05-09T07:24:51.493Z,1103.00
2023-05-09T07:25:51.558Z,1102.00
2023-05-09T07:26:51.621Z,1101.00
2023-05-09T07:27:51.618Z,1097.00
2023-05-09T07:28:51.703Z,1099.00
2023-05-09T07:29:51.683Z,1115.00
2023-05-09T07:30:51.753Z,1126.00
2023-05-09T07:31:51.819Z,1128.00
2023-05-09T07:32:51.851Z,1136.00
2023-05-09T07:33:51.852Z,1165.00
2023-05-09T07:34:51.854Z,1178.00
2023-05-09T07:35:51.911Z,1192.00
2023-05-09T07:36:51.930Z,1199.00
2023-05-09T07:37:52.043Z,1196.00
2023-05-09T07:38:51.977Z,1193.00
2023-05-09T07:39:52.003Z,1192.00
2023-05-09T07:40:51.994Z,1191.00
2023-05-09T07:41:52.037Z,1193.00
2023-05-09T07:42:52.034Z,1198.00
2023-05-09T07:43:52.065Z,1196.00
2023-05-09T07:44:52.111Z,1166.00
2023-05-09T07:45:52.162Z,1174.00
2023-05-09T07:46:52.108Z,1179.00
2023-05-09T07:47:52.188Z,1175.00
2023-05-09T07:48:52.412Z,1168.00
2023-05-09T07:49:52.169Z,1136.00
2023-05-09T07:50:52.248Z,1121.00
2023-05-09T07:51:52.225Z,1122.00
2023-05-09T07:52:52.261Z,1122.00
2023-05-09T07:53:52.431Z,1120.00
2023-05-09T07:54:52.290Z,1129.00
2023-05-09T07:55:52.325Z,1145.00
2023-05-09T07:56:52.383Z,1171.00
2023-05-09T07:57:52.363Z,1190.00
2023-05-09T07:58:55.006Z,1189.00
2023-05-09T07:59:52.422Z,1185.00
2023-05-09T08:00:52.390Z,1174.00
2023-05-09T08:01:53.409Z,1137.00
2023-05-09T08:02:52.482Z,1148.00
2023-05-09T08:03:52.488Z,1174.00
2023-05-09T08:04:52.355Z,1230.00
2023-05-09T08:05:52.359Z,1240.00
2023-05-09T08:06:52.307Z,1258.00
2023-05-09T08:07:52.338Z,1273.00
2023-05-09T08:08:52.292Z,1312.00
2023-05-09T08:09:52.318Z,1334.00
2023-05-09T08:10:52.333Z,1346.00
2023-05-09T08:11:52.324Z,1360.00
2023-05-09T08:12:52.358Z,1376.00
2023-05-09T08:13:52.257Z,1401.00
2023-05-09T08:14:52.297Z,1428.00
2023-05-09T08:15:52.311Z,1445.00
2023-05-09T08:16:52.252Z,1460.00
2023-05-09T08:17:52.328Z,1484.00
2023-05-09T08:18:52.280Z,1517.00
2023-05-09T08:19:52.257Z,1543.00
2023-05-09T08:20:52.253Z,1565.00
2023-05-09T08:21:52.226Z,1573.00
2023-05-09T08:22:52.235Z,1587.00
2023-05-09T08:23:52.195Z,1605.00
2023-05-09T08:24:52.220Z,1622.00
2023-05-09T08:25:52.281Z,1642.00
2023-05-09T08:26:52.199Z,1680.00
2023-05-09T08:27:53.060Z,1701.00
2023-05-09T08:28:52.423Z,1723.00
2023-05-09T08:29:52.171Z,1745.00
2023-05-09T08:30:52.371Z,1774.00
2023-05-09T08:31:52.229Z,1788.00
2023-05-09T08:32:52.190Z,1807.00
2023-05-09T08:33:52.161Z,1827.00
2023-05-09T08:34:52.151Z,1838.00
2023-05-09T08:35:52.154Z,1852.00
2023-05-09T08:36:52.175Z,1868.00
2023-05-09T08:37:52.113Z,1876.00
2023-05-09T08:38:52.417Z,1897.00
2023-05-09T08:39:52.159Z,1937.00
2023-05-09T08:40:52.231Z,1965.00
2023-05-09T08:41:52.332Z,1981.00
2023-05-09T08:42:52.322Z,2008.00
2023-05-09T08:43:52.351Z,2025.00
2023-05-09T08:44:52.389Z,2046.00
2023-05-09T08:45:52.473Z,2065.00
2023-05-09T08:46:52.520Z,2080.00
2023-05-09T08:47:52.646Z,2095.00
2023-05-09T08:48:52.932Z,2111.00
2023-05-09T08:49:52.702Z,2125.00
2023-05-09T08:50:52.737Z,2177.00
2023-05-09T08:51:52.836Z,2192.00
2023-05-09T08:52:52.868Z,2193.00
2023-05-09T08:53:52.935Z,2159.00
2023-05-09T08:54:53.015Z,1848.00
2023-05-09T08:55:53.068Z,1893.00
2023-05-09T08:56:53.087Z,1574.00
2023-05-09T08:57:53.241Z,1496.00
2023-05-09T08:58:53.174Z,1561.00
2023-05-09T08:59:53.216Z,1569.00
2023-05-09T09:00:53.245Z,1581.00
2023-05-09T09:01:53.300Z,1602.00
2023-05-09T09:02:53.505Z,1623.00
2023-05-09T09:03:53.414Z,1643.00
2023-05-09T09:04:53.411Z,1646.00
2023-05-09T09:05:53.493Z,1655.00
2023-05-09T09:06:53.455Z,1670.00
2023-05-09T09:07:53.521Z,1702.00
2023-05-09T09:08:53.926Z,1719.00
2023-05-09T09:09:53.641Z,1742.00
2023-05-09T09:10:53.735Z,1767.00
2023-05-09T09:11:53.769Z,1784.00
2023-05-09T09:12:53.856Z,1819.00
2023-05-09T09:13:54.041Z,1845.00
2023-05-09T09:14:53.972Z,1863.00
2023-05-09T09:15:54.006Z,1878.00
2023-05-09T09:16:54.105Z,1889.00
2023-05-09T09:17:54.177Z,1911.00
2023-05-09T09:18:55.413Z,1934.00
2023-05-09T09:19:54.205Z,1950.00
2023-05-09T09:20:54.276Z,1968.00
2023-05-09T09:21:54.336Z,1982.00
2023-05-09T09:22:54.388Z,1999.00
2023-05-09T09:23:54.443Z,2018.00
2023-05-09T09:24:54.448Z,2038.00
2023-05-09T09:25:54.506Z,2057.00
2023-05-09T09:26:54.540Z,2072.00
2023-05-09T09:27:54.594Z,2088.00
2023-05-09T09:28:54.617Z,2106.00
2023-05-09T09:29:54.745Z,2149.00
2023-05-09T09:30:54.744Z,2179.00
2023-05-09T09:31:54.775Z,2185.00
2023-05-09T09:32:54.859Z,2194.00
2023-05-09T09:33:54.879Z,2202.00
2023-05-09T09:34:54.895Z,2209.00
2023-05-09T09:35:54.937Z,2205.00
2023-05-09T09:36:55.013Z,2191.00
2023-05-09T09:37:55.009Z,1682.00
2023-05-09T09:38:55.481Z,1087.00
2023-05-09T09:39:55.149Z,1182.00
2023-05-09T09:40:55.191Z,1027.00
2023-05-09T09:41:55.182Z,1149.00
2023-05-09T09:42:55.213Z,1299.00
2023-05-09T09:43:56.884Z,1224.00
2023-05-09T09:44:55.255Z,1227.00
2023-05-09T09:45:55.363Z,1447.00
2023-05-09T09:46:55.262Z,1449.00
2023-05-09T09:47:55.263Z,1416.00
2023-05-09T09:48:55.237Z,1249.00
2023-05-09T09:49:55.447Z,1228.00
2023-05-09T09:50:55.236Z,1222.00
2023-05-09T09:51:55.256Z,1239.00
2023-05-09T09:52:55.219Z,1270.00
2023-05-09T09:53:55.211Z,1287.00
2023-05-09T09:54:55.459Z,1308.00
2023-05-09T09:55:55.181Z,1370.00
2023-05-09T09:56:55.417Z,1394.00
2023-05-09T09:57:55.200Z,1415.00
2023-05-09T09:58:55.169Z,1488.00
2023-05-09T09:59:55.451Z,1497.00
2023-05-09T10:00:55.190Z,1504.00
2023-05-09T10:01:55.253Z,1522.00
2023-05-09T10:02:55.163Z,1576.00
2023-05-09T10:03:55.155Z,1597.00
2023-05-09T10:04:55.104Z,1623.00
2023-05-09T10:05:55.143Z,1640.00
2023-05-09T10:06:55.120Z,1688.00
2023-05-09T10:07:55.115Z,1725.00
2023-05-09T10:08:55.106Z,1755.00
2023-05-09T10:09:55.088Z,1767.00
2023-05-09T10:10:55.085Z,1788.00
2023-05-09T10:11:55.079Z,1804.00
2023-05-09T10:12:55.061Z,1810.00
2023-05-09T10:13:55.062Z,1813.00
2023-05-09T10:14:55.433Z,1881.00
2023-05-09T10:15:55.108Z,1910.00
2023-05-09T10:16:55.068Z,1932.00
2023-05-09T10:17:55.308Z,1958.00
2023-05-09T10:18:55.138Z,1983.00
2023-05-09T10:19:55.014Z,2008.00
2023-05-09T10:20:55.019Z,2020.00
2023-05-09T10:21:55.000Z,2032.00
2023-05-09T10:22:54.998Z,2032.00
2023-05-09T10:23:54.966Z,2043.00
2023-05-09T10:24:56.947Z,2084.00
2023-05-09T10:25:55.125Z,2105.00
2023-05-09T10:26:55.116Z,2118.00
2023-05-09T10:27:55.161Z,2141.00
2023-05-09T10:28:55.176Z,2163.00
2023-05-09T10:29:55.161Z,2173.00
2023-05-09T10:30:55.217Z,2171.00
2023-05-09T10:31:55.202Z,2182.00
2023-05-09T10:32:55.228Z,2221.00
2023-05-09T10:33:55.285Z,2242.00
2023-05-09T10:34:55.211Z,2264.00
2023-05-09T10:35:55.200Z,2251.00
2023-05-09T10:36:55.189Z,1723.00
2023-05-09T10:37:55.223Z,1753.00
2023-05-09T10:38:55.324Z,1682.00
2023-05-09T10:39:55.224Z,1798.00
2023-05-09T10:40:55.247Z,1684.00
2023-05-09T10:41:55.285Z,1616.00
2023-05-09T10:42:55.327Z,1646.00
2023-05-09T10:43:55.333Z,1657.00
2023-05-09T10:44:55.353Z,1678.00
2023-05-09T10:45:55.379Z,1730.00
2023-05-09T10:46:55.449Z,1782.00
2023-05-09T10:47:55.417Z,1870.00
2023-05-09T10:48:55.427Z,1877.00
2023-05-09T10:49:55.509Z,1891.00
2023-05-09T10:50:55.442Z,1907.00
2023-05-09T10:51:55.458Z,1924.00
2023-05-09T10:52:55.458Z,1967.00
2023-05-09T10:53:55.441Z,1994.00
2023-05-09T10:54:55.939Z,2005.00
2023-05-09T10:55:55.502Z,2020.00
2023-05-09T10:56:55.469Z,2029.00
2023-05-09T10:57:55.487Z,2039.00
2023-05-09T10:58:55.460Z,2055.00
2023-05-09T10:59:55.990Z,2066.00
2023-05-09T11:00:57.274Z,2094.00
2023-05-09T11:01:55.466Z,2117.00
2023-05-09T11:02:55.607Z,2143.00
2023-05-09T11:03:55.509Z,2170.00
2023-05-09T11:04:55.469Z,2178.00
2023-05-09T11:05:55.547Z,2224.00
2023-05-09T11:06:57.723Z,2247.00
2023-05-09T11:07:55.503Z,2258.00
2023-05-09T11:08:55.522Z,2260.00
2023-05-09T11:09:55.980Z,2151.00
2023-05-09T11:10:55.559Z,1928.00
2023-05-09T11:11:55.526Z,1981.00
2023-05-09T11:12:57.526Z,1385.00
2023-05-09T11:13:55.644Z,1305.00
2023-05-09T11:14:55.997Z,1362.00
2023-05-09T11:15:55.704Z,1445.00
2023-05-09T11:16:55.683Z,1445.00
2023-05-09T11:17:55.746Z,1484.00
2023-05-09T11:18:55.715Z,1491.00
2023-05-09T11:19:55.953Z,1511.00
2023-05-09T11:20:55.749Z,1523.00
2023-05-09T11:21:55.852Z,1518.00
2023-05-09T11:22:55.758Z,1513.00
2023-05-09T11:23:55.804Z,1513.00
2023-05-09T11:26:11.636Z,1545.00
2023-05-09T11:27:11.707Z,1546.00
2023-05-09T11:28:11.613Z,1539.00
2023-05-09T11:29:11.568Z,1523.00
2023-05-09T11:30:11.564Z,1528.00
2023-05-09T11:31:11.577Z,1534.00
2023-05-09T11:32:11.601Z,1531.00
2023-05-09T11:33:11.599Z,1532.00
2023-05-09T11:34:11.563Z,1526.00
2023-05-09T11:35:11.970Z,1505.00
2023-05-09T11:36:11.545Z,1515.00
2023-05-09T11:37:11.601Z,1492.00
2023-05-09T11:38:11.529Z,1402.00
2023-05-09T11:39:11.536Z,1384.00
2023-05-09T11:40:11.703Z,1399.00
2023-05-09T11:41:11.510Z,1017.00
2023-05-09T11:42:11.477Z,1077.00
2023-05-09T11:43:11.450Z,1194.00
2023-05-09T11:44:11.484Z,1330.00
2023-05-09T11:45:11.901Z,1334.00
2023-05-09T11:46:11.470Z,1329.00
2023-05-09T11:47:11.436Z,1315.00
2023-05-09T11:48:11.521Z,1267.00
2023-05-09T11:49:12.376Z,1169.00
2023-05-09T11:50:11.411Z,1178.00
2023-05-09T11:51:11.382Z,1228.00
2023-05-09T11:52:11.404Z,1244.00
2023-05-09T11:53:11.541Z,1186.00
2023-05-09T11:54:11.396Z,1194.00
2023-05-09T11:55:12.707Z,1206.00
2023-05-09T11:56:11.404Z,1161.00
2023-05-09T11:57:11.380Z,1053.00
2023-05-09T11:58:11.368Z,1070.00
2023-05-09T11:59:11.379Z,1102.00
2023-05-09T12:00:11.782Z,1079.00
2023-05-09T12:01:12.178Z,1082.00
2023-05-09T12:02:11.359Z,1090.00
2023-05-09T12:03:11.375Z,1074.00
2023-05-09T12:04:11.342Z,929.00
2023-05-09T12:05:11.833Z,972.00
2023-05-09T12:06:11.285Z,998.00
2023-05-09T12:07:11.303Z,1005.00
2023-05-09T12:08:11.281Z,882.00
2023-05-09T12:09:11.370Z,830.00
2023-05-09T12:10:11.360Z,742.00
2023-05-09T12:11:11.794Z,744.00
2023-05-09T12:12:11.271Z,752.00
2023-05-09T12:13:11.426Z,773.00
2023-05-09T12:14:11.320Z,792.00
2023-05-09T12:15:11.802Z,799.00
2023-05-09T12:16:11.390Z,806.00
2023-05-09T12:17:11.457Z,814.00
2023-05-09T12:18:11.462Z,810.00
2023-05-09T12:19:11.431Z,811.00
2023-05-09T12:20:11.810Z,813.00